Friday, October 19, 2018, 2:53 AM EDT
Back to Local

KNHK, Nas Patuxent River Md

Location: Patuxent River, MD, United States Lat: 38.3
Local Time: 2:53 AM EDT ( 6:53 GMT) Lon: -76.4
Time Zone: US/Eastern Elev: 39 ft

Show me the last for .
Show Decoded

2018-10-19 01:52 METAR KNHK 190552Z AUTO 00000KT 10SM CLR 03/03 A3038 RMK AO2 SLP288 T00280028
                 10094 20028 55008 =
2018-10-19 00:52 METAR KNHK 190452Z AUTO 23004KT 10SM CLR 03/03 A3038 RMK AO2 SLP288 T00330033
                 401610033 =
2018-10-18 23:52 METAR KNHK 190352Z AUTO 23005KT 10SM CLR 06/04 A3039 RMK AO2 SLP292 T00560039 =
2018-10-18 22:52 METAR KNHK 190252Z 00000KT 10SM CLR 08/03 A3041 RMK AO2 SLP296 T00780033 53001 =
2018-10-18 21:52 METAR KNHK 190152Z 22004KT 10SM CLR 08/04 A3040 RMK AO2 SLP296 T00780039 =
2018-10-18 20:52 METAR KNHK 190052Z 22004KT 10SM CLR 08/04 A3040 RMK AO2 SLP293 T00830044 =
2018-10-18 19:52 METAR KNHK 182352Z 00000KT 10SM CLR 09/03 A3040 RMK AO2 SLP295 T00890033 10161
                 20089 53008 =
2018-10-18 18:52 METAR KNHK 182252Z 25004KT 10SM CLR 10/03 A3039 RMK AO2 SLP292 T01000033 =
2018-10-18 17:52 METAR KNHK 182152Z 29008KT 10SM FEW070 14/01 A3038 RMK AO2 SLP288 T01440006 =
2018-10-18 16:52 METAR KNHK 182052Z 33011KT 10SM FEW070 16/00 A3038 RMK AO2 SLP287 T01560000
                 56008 =
2018-10-18 15:52 METAR KNHK 181952Z 33012KT 10SM FEW060 16/00 A3038 RMK AO2 SLP289 T01610000 =
2018-10-18 14:52 METAR KNHK 181852Z 32012KT 10SM FEW060 16/01 A3039 RMK AO2 SLP290 T01610006 =
2018-10-18 13:52 METAR KNHK 181752Z 33009G15KT 10SM FEW080 FEW280 16/00 A3040 RMK AO2 SLP295
                 T01560000 10156 20111 58011 =
2018-10-18 12:52 METAR KNHK 181652Z 33011KT 10SM FEW280 15/M01 A3043 RMK AO2 SLP303 T01501006 =
2018-10-18 11:52 METAR KNHK 181552Z 32013KT 10SM FEW280 14/M01 A3044 RMK AO2 SLP309 T01441006 =
2018-10-18 10:52 METAR KNHK 181452Z 34015KT 10SM CLR 14/M02 A3044 RMK AO2 SLP306 T01391017 50013
                 =
2018-10-18 09:52 METAR KNHK 181352Z 34016G21KT 10SM FEW280 13/M02 A3044 RMK AO2 SLP308 T01281022
                 =
2018-10-18 08:52 METAR KNHK 181252Z 34013KT 10SM FEW030 FEW280 12/M02 A3042 RMK AO2 SLP301
                 T01221017 =
2018-10-18 07:52 METAR KNHK 181152Z 34012KT 10SM CLR 11/M01 A3040 RMK AO2 SLP294 T01111011 10144
                 20111 53024 =
2018-10-18 06:52 METAR KNHK 181052Z 33015G22KT 10SM CLR 11/M01 A3038 RMK AO2 SLP286 T01111011 =
2018-10-18 05:52 METAR KNHK 180952Z COR 35015KT 10SM CLR 12/M01 A3035 RMK AO2 SLP277 T01171011 =
2018-10-18 04:52 METAR KNHK 180852Z AUTO 35014G19KT 10SM CLR 12/01 A3033 RMK AO2 SLP270 T01220006
                 53030 =
2018-10-18 03:52 METAR KNHK 180752Z AUTO 34014KT 10SM CLR 13/02 A3030 RMK AO2 SLP261 T01330022 =

Support USWX by starting your Amazon purchase here.